Terminal Aerodrome Forecast
Issued by NWS

Home | Current Version | Previous Version | Text Only | Print | Product List | Glossary On
Versions: 1 2 3 4 5 6 7 8 9 10 11 12 13 14 15 16 17 18 19
000
FTUS43 KAPX 210523
TAFTVC
TAF
KTVC 210523Z 2106/2206 00000KT P6SM FEW250
     FM211400 00000KT P6SM BKN200
     FM211700 12006KT P6SM BKN150
     FM212100 15007KT P6SM OVC110
     FM220100 VRB04KT P6SM VCSH SCT050 OVC090
     FM220500 VRB04KT P6SM OVC040=

USA.gov is the U.S. government's official web portal to all federal, state and local government web resources and services.